createdAt,value
2023-05-07T00:03:21.363Z,11.30
2023-05-07T00:08:13.695Z,11.30
2023-05-07T00:13:05.921Z,11.20
2023-05-07T00:17:59.661Z,11.20
2023-05-07T00:22:51.778Z,11.20
2023-05-07T00:27:43.823Z,11.20
2023-05-07T00:32:35.983Z,11.20
2023-05-07T00:37:28.092Z,11.30
2023-05-07T00:42:20.120Z,11.20
2023-05-07T00:47:13.217Z,11.30
2023-05-07T00:52:06.668Z,11.30
2023-05-07T00:56:58.788Z,11.40
2023-05-07T01:01:51.074Z,11.30
2023-05-07T01:13:18.177Z,11.20
2023-05-07T01:18:10.546Z,11.20
2023-05-07T01:23:04.244Z,11.30
2023-05-07T01:27:56.532Z,11.20
2023-05-07T01:33:12.050Z,11.30
2023-05-07T01:38:07.077Z,11.20
2023-05-07T01:42:59.671Z,11.40
2023-05-07T01:47:52.699Z,11.40
2023-05-07T01:52:45.520Z,11.40
2023-05-07T01:57:37.563Z,11.30
2023-05-07T02:02:30.913Z,11.30
2023-05-07T02:07:24.253Z,11.30
2023-05-07T02:12:16.719Z,11.30
2023-05-07T02:17:09.114Z,11.30
2023-05-07T02:22:01.401Z,11.20
2023-05-07T02:26:56.017Z,11.10
2023-05-07T02:31:51.832Z,11.10
2023-05-07T02:36:44.308Z,11.20
2023-05-07T02:41:39.729Z,11.10
2023-05-07T02:46:31.967Z,11.00
2023-05-07T02:51:28.769Z,10.90
2023-05-07T02:56:26.694Z,10.90
2023-05-07T03:01:19.233Z,10.80
2023-05-07T03:06:32.400Z,10.80
2023-05-07T03:11:24.553Z,10.70
2023-05-07T03:16:17.207Z,10.80
2023-05-07T03:21:09.422Z,10.80
2023-05-07T03:26:01.595Z,10.70
2023-05-07T03:30:54.277Z,10.70
2023-05-07T03:35:46.729Z,10.60
2023-05-07T03:40:43.694Z,10.60
2023-05-07T03:45:35.888Z,10.60
2023-05-07T03:50:36.611Z,10.70
2023-05-07T03:55:30.090Z,10.60
2023-05-07T04:00:25.811Z,10.60
2023-05-07T04:05:17.878Z,10.60
2023-05-07T04:10:14.529Z,10.60
2023-05-07T04:15:11.119Z,10.50
2023-05-07T04:20:04.920Z,10.60
2023-05-07T04:24:57.275Z,10.50
2023-05-07T04:29:49.568Z,10.40
2023-05-07T04:34:43.655Z,10.40
2023-05-07T04:39:36.480Z,10.50
2023-05-07T04:44:29.210Z,10.80
2023-05-07T04:49:21.637Z,11.00
2023-05-07T04:54:15.364Z,11.20
2023-05-07T04:59:07.898Z,11.20
2023-05-07T05:04:01.782Z,11.30
2023-05-07T05:08:54.792Z,11.50
2023-05-07T05:13:50.013Z,11.50
2023-05-07T05:18:45.244Z,11.60
2023-05-07T05:23:40.177Z,11.70
2023-05-07T05:28:32.257Z,11.80
2023-05-07T05:33:24.455Z,12.20
2023-05-07T05:38:16.530Z,11.80
2023-05-07T05:43:08.741Z,11.70
2023-05-07T05:48:02.240Z,12.00
2023-05-07T05:52:55.508Z,11.90
2023-05-07T05:57:47.948Z,11.70
2023-05-07T06:02:40.444Z,11.60
2023-05-07T06:07:33.362Z,11.70
2023-05-07T06:12:25.971Z,11.80
2023-05-07T06:17:20.138Z,11.90
2023-05-07T06:22:16.116Z,11.90
2023-05-07T06:27:08.833Z,12.00
2023-05-07T06:32:09.364Z,12.20
2023-05-07T06:37:02.108Z,12.10
2023-05-07T06:42:06.962Z,11.50
2023-05-07T06:46:59.590Z,11.30
2023-05-07T06:51:52.570Z,11.40
2023-05-07T06:56:44.699Z,11.40
2023-05-07T07:01:36.873Z,11.30
2023-05-07T07:06:30.784Z,11.50
2023-05-07T07:11:23.456Z,11.70
2023-05-07T07:16:15.881Z,11.90
2023-05-07T07:21:08.430Z,12.00
2023-05-07T07:26:00.768Z,12.40
2023-05-07T07:30:53.348Z,12.40
2023-05-07T07:35:45.852Z,12.20
2023-05-07T07:40:38.133Z,12.00
2023-05-07T07:45:32.620Z,12.10
2023-05-07T07:55:25.303Z,11.70
2023-05-07T08:00:19.752Z,11.50
2023-05-07T08:05:17.697Z,11.50
2023-05-07T08:10:10.756Z,11.50
2023-05-07T08:15:03.362Z,11.50
2023-05-07T08:19:55.625Z,11.50
2023-05-07T08:24:47.897Z,11.60
2023-05-07T08:29:40.500Z,12.00
2023-05-07T08:34:33.044Z,12.00
2023-05-07T08:39:28.835Z,12.20
2023-05-07T08:44:23.982Z,12.50
2023-05-07T08:49:17.157Z,12.30
2023-05-07T08:54:12.280Z,12.30
2023-05-07T08:59:04.779Z,12.50
2023-05-07T09:03:57.237Z,12.60
2023-05-07T09:08:55.611Z,12.50
2023-05-07T09:13:56.679Z,12.40
2023-05-07T09:18:53.958Z,12.40
2023-05-07T09:23:46.137Z,12.50
2023-05-07T09:28:43.698Z,12.50
2023-05-07T09:33:39.273Z,12.70
2023-05-07T09:38:33.245Z,12.70
2023-05-07T09:43:25.885Z,12.60
2023-05-07T09:48:23.149Z,12.50
2023-05-07T09:53:19.544Z,12.60
2023-05-07T09:58:15.090Z,12.80
2023-05-07T10:03:08.666Z,13.10
2023-05-07T10:08:11.760Z,13.30
2023-05-07T10:13:11.785Z,12.90
2023-05-07T10:18:08.702Z,13.10
2023-05-07T10:23:05.501Z,13.10
2023-05-07T10:28:09.818Z,13.70
2023-05-07T10:33:10.029Z,13.40
2023-05-07T10:38:06.027Z,13.20
2023-05-07T10:43:09.304Z,13.50
2023-05-07T10:48:29.401Z,14.00
2023-05-07T10:53:31.950Z,14.80
2023-05-07T10:58:47.081Z,14.80
2023-05-07T11:04:15.269Z,15.20
2023-05-07T11:09:13.705Z,15.10
2023-05-07T11:14:43.336Z,15.10
2023-05-07T11:19:52.446Z,15.50
2023-05-07T11:25:10.993Z,15.80
2023-05-07T11:30:05.799Z,16.30
2023-05-07T11:35:00.573Z,15.50
2023-05-07T11:39:59.274Z,15.70
2023-05-07T11:44:51.986Z,15.80
2023-05-07T11:49:45.384Z,14.90
2023-05-07T11:54:38.639Z,14.90
2023-05-07T11:59:30.807Z,15.20
2023-05-07T12:04:23.153Z,15.20
2023-05-07T12:09:15.362Z,15.00
2023-05-07T12:14:09.483Z,14.80
2023-05-07T12:19:03.115Z,14.80
2023-05-07T12:23:55.524Z,15.10
2023-05-07T12:28:47.701Z,15.30
2023-05-07T12:33:41.127Z,15.40
2023-05-07T12:38:37.426Z,15.50
2023-05-07T12:43:30.795Z,15.40
2023-05-07T12:48:24.778Z,15.30
2023-05-07T12:53:16.918Z,15.70
2023-05-07T12:58:09.262Z,16.10
2023-05-07T13:03:01.398Z,16.60
2023-05-07T13:07:56.861Z,16.50
2023-05-07T13:12:48.920Z,17.10
2023-05-07T13:17:40.996Z,17.40
2023-05-07T13:22:33.613Z,16.90
2023-05-07T13:27:26.648Z,16.60
2023-05-07T13:32:19.203Z,16.10
2023-05-07T13:37:12.287Z,16.30
2023-05-07T13:42:04.825Z,16.10
2023-05-07T13:46:57.338Z,16.00
2023-05-07T13:51:49.475Z,16.50
2023-05-07T13:56:41.607Z,16.20
2023-05-07T14:01:33.962Z,16.10
2023-05-07T14:06:26.571Z,15.90
2023-05-07T14:11:19.070Z,15.90
2023-05-07T14:16:11.154Z,15.90
2023-05-07T14:21:03.425Z,15.90
2023-05-07T14:25:55.667Z,15.80
2023-05-07T14:30:48.287Z,15.60
2023-05-07T14:35:40.728Z,15.30
2023-05-07T14:40:32.779Z,15.10
2023-05-07T14:45:24.860Z,15.00
2023-05-07T14:50:18.091Z,15.20
2023-05-07T14:55:10.529Z,15.00
2023-05-07T15:00:07.192Z,14.60
2023-05-07T15:05:00.273Z,14.40
2023-05-07T15:09:52.777Z,14.60
2023-05-07T15:14:44.848Z,14.70
2023-05-07T15:19:38.165Z,14.70
2023-05-07T15:24:31.021Z,14.60
2023-05-07T15:29:22.999Z,14.70
2023-05-07T15:34:17.998Z,14.60
2023-05-07T15:39:11.000Z,14.50
2023-05-07T15:44:02.982Z,14.60
2023-05-07T15:48:55.208Z,14.50
2023-05-07T15:53:47.743Z,14.30
2023-05-07T15:58:39.802Z,13.90
2023-05-07T16:03:32.633Z,13.90
2023-05-07T16:08:25.032Z,14.10
2023-05-07T16:13:20.226Z,14.20
2023-05-07T16:18:16.200Z,13.90
2023-05-07T16:23:08.210Z,13.80
2023-05-07T16:28:00.239Z,13.80
2023-05-07T16:32:52.309Z,14.00
2023-05-07T16:37:45.277Z,13.30
2023-05-07T16:42:37.778Z,12.90
2023-05-07T16:47:30.347Z,12.90
2023-05-07T16:52:22.476Z,12.90
2023-05-07T16:57:14.578Z,12.70
2023-05-07T17:02:07.470Z,12.50
2023-05-07T17:07:00.873Z,12.40
2023-05-07T17:11:52.899Z,12.50
2023-05-07T17:16:45.106Z,12.40
2023-05-07T17:21:37.743Z,12.10
2023-05-07T17:26:31.627Z,12.00
2023-05-07T17:31:23.856Z,11.90
2023-05-07T17:36:16.426Z,11.80
2023-05-07T17:41:08.522Z,11.70
2023-05-07T17:46:00.652Z,11.70
2023-05-07T17:50:52.753Z,11.60
2023-05-07T17:55:45.532Z,11.50
2023-05-07T18:00:38.210Z,11.40
2023-05-07T18:05:30.809Z,11.30
2023-05-07T18:10:23.168Z,11.20
2023-05-07T18:15:15.460Z,11.10
2023-05-07T18:20:11.188Z,11.10
2023-05-07T18:25:03.820Z,11.00
2023-05-07T18:29:55.896Z,10.80
2023-05-07T18:34:48.699Z,10.70
2023-05-07T18:39:40.697Z,10.70
2023-05-07T18:44:33.454Z,10.50
2023-05-07T18:49:25.449Z,10.40
2023-05-07T18:54:17.746Z,10.40
2023-05-07T18:59:09.929Z,10.30
2023-05-07T19:04:01.990Z,10.20
2023-05-07T19:08:54.005Z,10.30
2023-05-07T19:13:46.035Z,10.20
2023-05-07T19:18:38.542Z,10.00
2023-05-07T19:23:30.736Z,10.00
2023-05-07T19:28:23.011Z,9.90
2023-05-07T19:33:15.132Z,9.70
2023-05-07T19:38:08.206Z,9.50
2023-05-07T19:43:00.555Z,9.40
2023-05-07T19:47:52.697Z,9.30
2023-05-07T19:52:44.836Z,9.20
2023-05-07T19:57:36.976Z,9.40
2023-05-07T20:02:29.104Z,9.20
2023-05-07T20:07:21.179Z,9.20
2023-05-07T20:12:13.264Z,9.20
2023-05-07T20:17:05.360Z,9.10
2023-05-07T20:21:57.345Z,9.20
2023-05-07T20:26:49.404Z,9.30
2023-05-07T20:31:41.675Z,9.20
2023-05-07T20:36:33.962Z,9.10
2023-05-07T20:41:26.053Z,8.90
2023-05-07T20:46:20.822Z,8.90
2023-05-07T20:51:15.694Z,8.90
2023-05-07T20:56:09.056Z,8.80
2023-05-07T21:01:01.258Z,8.90
2023-05-07T21:05:55.675Z,9.10
2023-05-07T21:10:48.249Z,9.10
2023-05-07T21:15:42.806Z,9.20
2023-05-07T21:20:36.480Z,9.10
2023-05-07T21:25:28.715Z,9.10
2023-05-07T21:30:21.169Z,9.10
2023-05-07T21:35:13.294Z,9.10
2023-05-07T21:40:06.476Z,9.00
2023-05-07T21:44:59.961Z,8.90
2023-05-07T21:49:53.134Z,8.80
2023-05-07T21:54:45.272Z,8.70
2023-05-07T21:59:37.576Z,8.60
2023-05-07T22:04:29.991Z,8.40
2023-05-07T22:09:24.652Z,8.30
2023-05-07T22:14:18.919Z,8.20
2023-05-07T22:19:11.179Z,8.20
2023-05-07T22:24:03.760Z,8.10
2023-05-07T22:28:55.793Z,8.10
2023-05-07T22:33:47.800Z,8.10
2023-05-07T22:38:39.816Z,8.20
2023-05-07T22:43:31.971Z,8.20
2023-05-07T22:48:24.042Z,8.40
2023-05-07T22:53:16.070Z,8.50
2023-05-07T22:58:08.143Z,8.50
2023-05-07T23:03:01.554Z,8.40
2023-05-07T23:07:54.253Z,8.30
2023-05-07T23:12:49.546Z,8.20
2023-05-07T23:17:41.652Z,8.10
2023-05-07T23:22:33.719Z,8.10
2023-05-07T23:27:25.857Z,8.20
2023-05-07T23:32:18.303Z,8.40
2023-05-07T23:37:13.109Z,8.50
2023-05-07T23:42:05.246Z,8.60
2023-05-07T23:46:57.327Z,8.70
2023-05-07T23:51:49.317Z,8.40
2023-05-07T23:56:41.328Z,8.20
